sensor_id;sensor_type;location;lat;lon;timestamp;P1;durP1;ratioP1;P2;durP2;ratioP2
18657;SDS011;9458;50.942;5.074;2022-12-07T00:01:07;14.80;;;9.43;;
18657;SDS011;9458;50.942;5.074;2022-12-07T00:03:37;14.33;;;9.10;;
18657;SDS011;9458;50.942;5.074;2022-12-07T00:06:07;13.10;;;9.03;;
18657;SDS011;9458;50.942;5.074;2022-12-07T00:08:36;13.00;;;9.73;;
18657;SDS011;9458;50.942;5.074;2022-12-07T00:11:07;14.85;;;9.68;;
18657;SDS011;9458;50.942;5.074;2022-12-07T00:13:38;16.67;;;9.02;;
18657;SDS011;9458;50.942;5.074;2022-12-07T00:16:07;12.25;;;8.90;;
18657;SDS011;9458;50.942;5.074;2022-12-07T00:18:37;12.05;;;8.98;;
18657;SDS011;9458;50.942;5.074;2022-12-07T00:21:06;14.40;;;9.48;;
18657;SDS011;9458;50.942;5.074;2022-12-07T00:23:37;11.73;;;8.70;;
18657;SDS011;9458;50.942;5.074;2022-12-07T00:26:07;11.80;;;8.80;;
18657;SDS011;9458;50.942;5.074;2022-12-07T00:28:36;15.17;;;9.20;;
18657;SDS011;9458;50.942;5.074;2022-12-07T00:31:05;14.38;;;8.98;;
18657;SDS011;9458;50.942;5.074;2022-12-07T00:33:34;12.85;;;9.15;;
18657;SDS011;9458;50.942;5.074;2022-12-07T00:36:05;16.33;;;10.77;;
18657;SDS011;9458;50.942;5.074;2022-12-07T00:38:35;14.50;;;8.83;;
18657;SDS011;9458;50.942;5.074;2022-12-07T00:41:05;12.73;;;8.67;;
18657;SDS011;9458;50.942;5.074;2022-12-07T00:43:35;16.20;;;9.40;;
18657;SDS011;9458;50.942;5.074;2022-12-07T00:46:04;12.65;;;9.70;;
18657;SDS011;9458;50.942;5.074;2022-12-07T00:48:33;15.87;;;9.93;;
18657;SDS011;9458;50.942;5.074;2022-12-07T00:51:03;14.15;;;9.40;;
18657;SDS011;9458;50.942;5.074;2022-12-07T00:53:33;17.60;;;10.10;;
18657;SDS011;9458;50.942;5.074;2022-12-07T00:56:04;13.90;;;8.90;;
18657;SDS011;9458;50.942;5.074;2022-12-07T00:58:35;14.57;;;9.48;;
18657;SDS011;9458;50.942;5.074;2022-12-07T01:01:04;14.10;;;9.97;;
18657;SDS011;9458;50.942;5.074;2022-12-07T01:03:34;11.30;;;8.50;;
18657;SDS011;9458;50.942;5.074;2022-12-07T01:06:10;15.00;;;9.80;;
18657;SDS011;9458;50.942;5.074;2022-12-07T01:08:43;11.97;;;9.37;;
18657;SDS011;9458;50.942;5.074;2022-12-07T01:11:14;12.53;;;8.73;;
18657;SDS011;9458;50.942;5.074;2022-12-07T01:13:44;14.87;;;8.93;;
18657;SDS011;9458;50.942;5.074;2022-12-07T01:16:13;13.87;;;9.53;;
18657;SDS011;9458;50.942;5.074;2022-12-07T01:18:51;13.53;;;9.27;;
18657;SDS011;9458;50.942;5.074;2022-12-07T01:21:23;11.57;;;8.53;;
18657;SDS011;9458;50.942;5.074;2022-12-07T01:23:53;13.53;;;8.63;;
18657;SDS011;9458;50.942;5.074;2022-12-07T01:26:23;13.33;;;9.23;;
18657;SDS011;9458;50.942;5.074;2022-12-07T01:28:56;14.63;;;9.37;;
18657;SDS011;9458;50.942;5.074;2022-12-07T01:31:26;11.80;;;8.63;;
18657;SDS011;9458;50.942;5.074;2022-12-07T01:33:56;13.70;;;9.03;;
18657;SDS011;9458;50.942;5.074;2022-12-07T01:36:27;13.20;;;9.77;;
18657;SDS011;9458;50.942;5.074;2022-12-07T01:38:57;11.70;;;8.57;;
18657;SDS011;9458;50.942;5.074;2022-12-07T01:41:27;15.30;;;9.23;;
18657;SDS011;9458;50.942;5.074;2022-12-07T01:44:10;13.98;;;9.55;;
18657;SDS011;9458;50.942;5.074;2022-12-07T01:46:42;15.37;;;9.77;;
18657;SDS011;9458;50.942;5.074;2022-12-07T01:49:16;15.32;;;9.65;;
18657;SDS011;9458;50.942;5.074;2022-12-07T01:51:59;15.00;;;9.57;;
18657;SDS011;9458;50.942;5.074;2022-12-07T01:54:35;13.57;;;9.33;;
18657;SDS011;9458;50.942;5.074;2022-12-07T01:57:07;13.32;;;9.48;;
18657;SDS011;9458;50.942;5.074;2022-12-07T01:59:40;11.53;;;9.27;;
18657;SDS011;9458;50.942;5.074;2022-12-07T02:02:12;13.80;;;9.67;;
18657;SDS011;9458;50.942;5.074;2022-12-07T02:04:44;15.48;;;10.05;;
18657;SDS011;9458;50.942;5.074;2022-12-07T02:07:12;14.15;;;9.98;;
18657;SDS011;9458;50.942;5.074;2022-12-07T02:09:40;13.30;;;10.23;;
18657;SDS011;9458;50.942;5.074;2022-12-07T02:12:09;13.87;;;10.77;;
18657;SDS011;9458;50.942;5.074;2022-12-07T02:14:37;16.40;;;10.90;;
18657;SDS011;9458;50.942;5.074;2022-12-07T02:17:07;16.05;;;10.73;;
18657;SDS011;9458;50.942;5.074;2022-12-07T02:19:51;15.20;;;10.67;;
18657;SDS011;9458;50.942;5.074;2022-12-07T02:22:51;15.03;;;10.83;;
18657;SDS011;9458;50.942;5.074;2022-12-07T02:25:33;16.20;;;10.40;;
18657;SDS011;9458;50.942;5.074;2022-12-07T02:28:20;14.53;;;11.07;;
18657;SDS011;9458;50.942;5.074;2022-12-07T02:30:58;16.63;;;11.40;;
18657;SDS011;9458;50.942;5.074;2022-12-07T02:33:33;15.47;;;10.70;;
18657;SDS011;9458;50.942;5.074;2022-12-07T02:36:04;17.03;;;11.47;;
18657;SDS011;9458;50.942;5.074;2022-12-07T02:38:38;18.53;;;12.30;;
18657;SDS011;9458;50.942;5.074;2022-12-07T02:41:13;18.10;;;11.77;;
18657;SDS011;9458;50.942;5.074;2022-12-07T02:43:45;19.00;;;11.50;;
18657;SDS011;9458;50.942;5.074;2022-12-07T02:46:20;18.60;;;12.37;;
18657;SDS011;9458;50.942;5.074;2022-12-07T02:48:50;18.03;;;11.63;;
18657;SDS011;9458;50.942;5.074;2022-12-07T02:51:20;17.27;;;12.00;;
18657;SDS011;9458;50.942;5.074;2022-12-07T02:53:48;19.97;;;12.47;;
18657;SDS011;9458;50.942;5.074;2022-12-07T02:56:19;16.07;;;11.77;;
18657;SDS011;9458;50.942;5.074;2022-12-07T02:58:54;18.67;;;11.70;;
18657;SDS011;9458;50.942;5.074;2022-12-07T03:01:33;19.23;;;11.87;;
18657;SDS011;9458;50.942;5.074;2022-12-07T03:04:10;18.53;;;12.27;;
18657;SDS011;9458;50.942;5.074;2022-12-07T03:06:52;17.33;;;11.97;;
18657;SDS011;9458;50.942;5.074;2022-12-07T03:09:25;19.47;;;12.53;;
18657;SDS011;9458;50.942;5.074;2022-12-07T03:12:00;16.17;;;12.13;;
18657;SDS011;9458;50.942;5.074;2022-12-07T03:14:34;19.13;;;11.70;;
18657;SDS011;9458;50.942;5.074;2022-12-07T03:17:07;20.37;;;12.13;;
18657;SDS011;9458;50.942;5.074;2022-12-07T03:19:40;18.50;;;12.20;;
18657;SDS011;9458;50.942;5.074;2022-12-07T03:22:10;18.33;;;11.03;;
18657;SDS011;9458;50.942;5.074;2022-12-07T03:24:40;18.30;;;12.20;;
18657;SDS011;9458;50.942;5.074;2022-12-07T03:27:13;17.40;;;11.43;;
18657;SDS011;9458;50.942;5.074;2022-12-07T03:29:48;18.97;;;11.47;;
18657;SDS011;9458;50.942;5.074;2022-12-07T03:32:23;17.17;;;11.27;;
18657;SDS011;9458;50.942;5.074;2022-12-07T03:34:56;20.23;;;11.47;;
18657;SDS011;9458;50.942;5.074;2022-12-07T03:37:29;17.70;;;12.17;;
18657;SDS011;9458;50.942;5.074;2022-12-07T03:40:02;14.73;;;11.33;;
18657;SDS011;9458;50.942;5.074;2022-12-07T03:42:34;14.00;;;10.70;;
18657;SDS011;9458;50.942;5.074;2022-12-07T03:45:02;14.13;;;11.50;;
18657;SDS011;9458;50.942;5.074;2022-12-07T03:47:34;15.70;;;10.53;;
18657;SDS011;9458;50.942;5.074;2022-12-07T03:50:10;15.63;;;11.20;;
18657;SDS011;9458;50.942;5.074;2022-12-07T03:52:46;16.17;;;11.23;;
18657;SDS011;9458;50.942;5.074;2022-12-07T03:55:20;16.87;;;11.53;;
18657;SDS011;9458;50.942;5.074;2022-12-07T03:57:53;17.03;;;11.73;;
18657;SDS011;9458;50.942;5.074;2022-12-07T04:00:25;16.67;;;11.05;;
18657;SDS011;9458;50.942;5.074;2022-12-07T04:02:55;18.40;;;12.67;;
18657;SDS011;9458;50.942;5.074;2022-12-07T04:05:23;17.57;;;11.67;;
18657;SDS011;9458;50.942;5.074;2022-12-07T04:07:51;19.27;;;12.63;;
18657;SDS011;9458;50.942;5.074;2022-12-07T04:10:20;17.50;;;11.10;;
18657;SDS011;9458;50.942;5.074;2022-12-07T04:12:48;16.13;;;10.70;;
18657;SDS011;9458;50.942;5.074;2022-12-07T04:15:16;20.67;;;11.50;;
18657;SDS011;9458;50.942;5.074;2022-12-07T04:17:45;19.93;;;12.80;;
18657;SDS011;9458;50.942;5.074;2022-12-07T04:20:14;19.73;;;12.20;;
18657;SDS011;9458;50.942;5.074;2022-12-07T04:22:42;18.63;;;12.77;;
18657;SDS011;9458;50.942;5.074;2022-12-07T04:25:10;18.95;;;11.80;;
18657;SDS011;9458;50.942;5.074;2022-12-07T04:27:39;15.20;;;10.20;;
18657;SDS011;9458;50.942;5.074;2022-12-07T04:30:08;15.73;;;11.07;;
18657;SDS011;9458;50.942;5.074;2022-12-07T04:32:37;18.47;;;11.87;;
18657;SDS011;9458;50.942;5.074;2022-12-07T04:35:05;19.93;;;11.17;;
18657;SDS011;9458;50.942;5.074;2022-12-07T04:37:35;16.43;;;11.73;;
18657;SDS011;9458;50.942;5.074;2022-12-07T04:40:06;16.27;;;12.07;;
18657;SDS011;9458;50.942;5.074;2022-12-07T04:42:37;19.77;;;10.90;;
18657;SDS011;9458;50.942;5.074;2022-12-07T04:45:05;15.00;;;11.00;;
18657;SDS011;9458;50.942;5.074;2022-12-07T04:47:34;17.83;;;11.40;;
18657;SDS011;9458;50.942;5.074;2022-12-07T04:50:02;17.30;;;11.37;;
18657;SDS011;9458;50.942;5.074;2022-12-07T04:52:29;16.23;;;11.63;;
18657;SDS011;9458;50.942;5.074;2022-12-07T04:54:59;17.23;;;10.73;;
18657;SDS011;9458;50.942;5.074;2022-12-07T04:57:27;15.43;;;10.40;;
18657;SDS011;9458;50.942;5.074;2022-12-07T04:59:55;13.97;;;10.47;;
18657;SDS011;9458;50.942;5.074;2022-12-07T05:02:22;15.57;;;10.60;;
18657;SDS011;9458;50.942;5.074;2022-12-07T05:04:50;15.57;;;9.80;;
18657;SDS011;9458;50.942;5.074;2022-12-07T05:07:18;15.20;;;10.47;;
18657;SDS011;9458;50.942;5.074;2022-12-07T05:09:46;16.00;;;10.57;;
18657;SDS011;9458;50.942;5.074;2022-12-07T05:12:15;15.17;;;10.30;;
18657;SDS011;9458;50.942;5.074;2022-12-07T05:14:43;17.03;;;10.27;;
18657;SDS011;9458;50.942;5.074;2022-12-07T05:17:10;18.30;;;10.93;;
18657;SDS011;9458;50.942;5.074;2022-12-07T05:19:38;16.87;;;10.60;;
18657;SDS011;9458;50.942;5.074;2022-12-07T05:22:05;16.77;;;11.33;;
18657;SDS011;9458;50.942;5.074;2022-12-07T05:24:32;18.40;;;11.43;;
18657;SDS011;9458;50.942;5.074;2022-12-07T05:27:01;18.83;;;11.63;;
18657;SDS011;9458;50.942;5.074;2022-12-07T05:29:30;19.80;;;11.13;;
18657;SDS011;9458;50.942;5.074;2022-12-07T05:31:57;14.83;;;10.93;;
18657;SDS011;9458;50.942;5.074;2022-12-07T05:34:25;18.13;;;12.30;;
18657;SDS011;9458;50.942;5.074;2022-12-07T05:36:53;16.90;;;11.70;;
18657;SDS011;9458;50.942;5.074;2022-12-07T05:39:21;18.67;;;12.03;;
18657;SDS011;9458;50.942;5.074;2022-12-07T05:41:49;19.23;;;12.80;;
18657;SDS011;9458;50.942;5.074;2022-12-07T05:44:36;17.23;;;11.77;;
18657;SDS011;9458;50.942;5.074;2022-12-07T05:47:04;16.27;;;12.63;;
18657;SDS011;9458;50.942;5.074;2022-12-07T05:49:32;21.10;;;13.13;;
18657;SDS011;9458;50.942;5.074;2022-12-07T05:52:00;23.90;;;13.30;;
18657;SDS011;9458;50.942;5.074;2022-12-07T05:54:29;22.73;;;12.87;;
18657;SDS011;9458;50.942;5.074;2022-12-07T05:56:58;19.53;;;12.37;;
18657;SDS011;9458;50.942;5.074;2022-12-07T05:59:26;19.97;;;11.83;;
18657;SDS011;9458;50.942;5.074;2022-12-07T06:01:55;21.13;;;12.50;;
18657;SDS011;9458;50.942;5.074;2022-12-07T06:04:25;16.57;;;11.00;;
18657;SDS011;9458;50.942;5.074;2022-12-07T06:06:54;13.10;;;9.83;;
18657;SDS011;9458;50.942;5.074;2022-12-07T06:09:23;13.17;;;9.57;;
18657;SDS011;9458;50.942;5.074;2022-12-07T06:11:52;15.87;;;10.27;;
18657;SDS011;9458;50.942;5.074;2022-12-07T06:14:37;14.77;;;9.73;;
18657;SDS011;9458;50.942;5.074;2022-12-07T06:17:07;13.33;;;9.30;;
18657;SDS011;9458;50.942;5.074;2022-12-07T06:19:34;13.77;;;9.37;;
18657;SDS011;9458;50.942;5.074;2022-12-07T06:22:03;13.87;;;9.03;;
18657;SDS011;9458;50.942;5.074;2022-12-07T06:24:31;12.10;;;9.07;;
18657;SDS011;9458;50.942;5.074;2022-12-07T06:26:59;12.33;;;8.60;;
18657;SDS011;9458;50.942;5.074;2022-12-07T06:29:27;13.90;;;9.27;;
18657;SDS011;9458;50.942;5.074;2022-12-07T06:31:55;14.10;;;9.50;;
18657;SDS011;9458;50.942;5.074;2022-12-07T06:34:25;14.87;;;9.40;;
18657;SDS011;9458;50.942;5.074;2022-12-07T06:36:54;12.93;;;8.67;;
18657;SDS011;9458;50.942;5.074;2022-12-07T06:39:23;13.70;;;9.10;;
18657;SDS011;9458;50.942;5.074;2022-12-07T06:41:53;16.00;;;10.27;;
18657;SDS011;9458;50.942;5.074;2022-12-07T06:44:21;14.37;;;10.80;;
18657;SDS011;9458;50.942;5.074;2022-12-07T06:46:49;14.97;;;9.57;;
18657;SDS011;9458;50.942;5.074;2022-12-07T06:49:18;14.50;;;10.30;;
18657;SDS011;9458;50.942;5.074;2022-12-07T06:51:48;15.60;;;9.97;;
18657;SDS011;9458;50.942;5.074;2022-12-07T06:54:16;15.67;;;10.20;;
18657;SDS011;9458;50.942;5.074;2022-12-07T06:56:44;13.70;;;10.07;;
18657;SDS011;9458;50.942;5.074;2022-12-07T06:59:13;13.57;;;9.83;;
18657;SDS011;9458;50.942;5.074;2022-12-07T07:01:42;16.23;;;10.80;;
18657;SDS011;9458;50.942;5.074;2022-12-07T07:04:11;16.47;;;9.87;;
18657;SDS011;9458;50.942;5.074;2022-12-07T07:06:39;14.57;;;10.10;;
18657;SDS011;9458;50.942;5.074;2022-12-07T07:09:08;16.73;;;10.17;;
18657;SDS011;9458;50.942;5.074;2022-12-07T07:11:36;15.43;;;10.23;;
18657;SDS011;9458;50.942;5.074;2022-12-07T07:14:03;14.63;;;10.23;;
18657;SDS011;9458;50.942;5.074;2022-12-07T07:16:31;15.37;;;10.43;;
18657;SDS011;9458;50.942;5.074;2022-12-07T07:18:59;15.10;;;9.63;;
18657;SDS011;9458;50.942;5.074;2022-12-07T07:21:26;15.23;;;9.40;;
18657;SDS011;9458;50.942;5.074;2022-12-07T07:23:54;13.67;;;9.80;;
18657;SDS011;9458;50.942;5.074;2022-12-07T07:26:24;15.23;;;9.67;;
18657;SDS011;9458;50.942;5.074;2022-12-07T07:28:51;10.90;;;9.30;;
18657;SDS011;9458;50.942;5.074;2022-12-07T07:31:18;15.70;;;9.60;;
18657;SDS011;9458;50.942;5.074;2022-12-07T07:33:45;18.80;;;9.33;;
18657;SDS011;9458;50.942;5.074;2022-12-07T07:36:13;14.30;;;9.80;;
18657;SDS011;9458;50.942;5.074;2022-12-07T07:38:40;14.73;;;9.17;;
18657;SDS011;9458;50.942;5.074;2022-12-07T07:41:07;16.87;;;9.27;;
18657;SDS011;9458;50.942;5.074;2022-12-07T07:43:37;12.23;;;9.47;;
18657;SDS011;9458;50.942;5.074;2022-12-07T07:46:04;13.07;;;8.93;;
18657;SDS011;9458;50.942;5.074;2022-12-07T07:48:32;14.07;;;8.37;;
18657;SDS011;9458;50.942;5.074;2022-12-07T07:50:59;12.90;;;8.63;;
18657;SDS011;9458;50.942;5.074;2022-12-07T07:53:26;14.10;;;9.33;;
18657;SDS011;9458;50.942;5.074;2022-12-07T07:55:54;13.87;;;9.33;;
18657;SDS011;9458;50.942;5.074;2022-12-07T07:58:22;10.90;;;8.13;;
18657;SDS011;9458;50.942;5.074;2022-12-07T08:00:52;13.70;;;8.10;;
18657;SDS011;9458;50.942;5.074;2022-12-07T08:03:20;12.13;;;7.90;;
18657;SDS011;9458;50.942;5.074;2022-12-07T08:05:48;12.17;;;8.03;;
18657;SDS011;9458;50.942;5.074;2022-12-07T08:08:16;11.53;;;8.07;;
18657;SDS011;9458;50.942;5.074;2022-12-07T08:10:44;11.35;;;7.90;;
18657;SDS011;9458;50.942;5.074;2022-12-07T08:13:11;12.55;;;7.60;;
18657;SDS011;9458;50.942;5.074;2022-12-07T08:15:42;11.00;;;7.20;;
18657;SDS011;9458;50.942;5.074;2022-12-07T08:18:13;7.70;;;5.78;;
18657;SDS011;9458;50.942;5.074;2022-12-07T08:20:41;9.63;;;5.85;;
18657;SDS011;9458;50.942;5.074;2022-12-07T08:23:11;7.70;;;5.88;;
18657;SDS011;9458;50.942;5.074;2022-12-07T08:25:39;8.38;;;5.45;;
18657;SDS011;9458;50.942;5.074;2022-12-07T08:28:07;8.18;;;5.75;;
18657;SDS011;9458;50.942;5.074;2022-12-07T08:30:34;7.43;;;5.38;;
18657;SDS011;9458;50.942;5.074;2022-12-07T08:33:03;7.28;;;5.50;;
18657;SDS011;9458;50.942;5.074;2022-12-07T08:35:33;8.63;;;5.22;;
18657;SDS011;9458;50.942;5.074;2022-12-07T08:38:00;8.73;;;5.15;;
18657;SDS011;9458;50.942;5.074;2022-12-07T08:40:29;10.57;;;5.75;;
18657;SDS011;9458;50.942;5.074;2022-12-07T08:42:58;7.05;;;5.07;;
18657;SDS011;9458;50.942;5.074;2022-12-07T08:45:26;9.02;;;5.00;;
18657;SDS011;9458;50.942;5.074;2022-12-07T08:47:55;8.15;;;5.03;;
18657;SDS011;9458;50.942;5.074;2022-12-07T08:50:25;8.38;;;5.15;;
18657;SDS011;9458;50.942;5.074;2022-12-07T08:52:56;5.50;;;4.50;;
18657;SDS011;9458;50.942;5.074;2022-12-07T08:55:26;6.20;;;4.15;;
18657;SDS011;9458;50.942;5.074;2022-12-07T08:57:55;7.32;;;4.85;;
18657;SDS011;9458;50.942;5.074;2022-12-07T09:00:24;7.30;;;4.10;;
18657;SDS011;9458;50.942;5.074;2022-12-07T09:02:52;9.18;;;4.30;;
18657;SDS011;9458;50.942;5.074;2022-12-07T09:05:20;6.57;;;4.25;;
18657;SDS011;9458;50.942;5.074;2022-12-07T09:07:49;6.70;;;4.72;;
18657;SDS011;9458;50.942;5.074;2022-12-07T09:10:23;5.90;;;4.40;;
18657;SDS011;9458;50.942;5.074;2022-12-07T09:12:52;7.43;;;4.75;;
18657;SDS011;9458;50.942;5.074;2022-12-07T09:15:19;8.93;;;5.70;;
18657;SDS011;9458;50.942;5.074;2022-12-07T09:17:48;5.78;;;5.03;;
18657;SDS011;9458;50.942;5.074;2022-12-07T09:20:15;9.23;;;5.60;;
18657;SDS011;9458;50.942;5.074;2022-12-07T09:22:43;6.50;;;5.28;;
18657;SDS011;9458;50.942;5.074;2022-12-07T09:25:11;10.65;;;6.97;;
18657;SDS011;9458;50.942;5.074;2022-12-07T09:27:41;15.05;;;7.90;;
18657;SDS011;9458;50.942;5.074;2022-12-07T09:30:09;9.93;;;4.95;;
18657;SDS011;9458;50.942;5.074;2022-12-07T09:32:37;7.75;;;4.68;;
18657;SDS011;9458;50.942;5.074;2022-12-07T09:35:06;7.05;;;5.18;;
18657;SDS011;9458;50.942;5.074;2022-12-07T09:37:34;7.68;;;5.55;;
18657;SDS011;9458;50.942;5.074;2022-12-07T09:40:02;10.23;;;5.55;;
18657;SDS011;9458;50.942;5.074;2022-12-07T09:42:33;10.80;;;5.82;;
18657;SDS011;9458;50.942;5.074;2022-12-07T09:45:06;11.63;;;5.45;;
18657;SDS011;9458;50.942;5.074;2022-12-07T09:47:41;8.00;;;5.47;;
18657;SDS011;9458;50.942;5.074;2022-12-07T09:50:12;7.03;;;5.60;;
18657;SDS011;9458;50.942;5.074;2022-12-07T09:52:42;8.52;;;5.45;;
18657;SDS011;9458;50.942;5.074;2022-12-07T09:55:14;7.97;;;5.25;;
18657;SDS011;9458;50.942;5.074;2022-12-07T09:57:42;9.25;;;4.82;;
18657;SDS011;9458;50.942;5.074;2022-12-07T10:00:14;8.13;;;5.00;;
18657;SDS011;9458;50.942;5.074;2022-12-07T10:02:44;7.13;;;4.75;;
18657;SDS011;9458;50.942;5.074;2022-12-07T10:05:15;9.20;;;4.88;;
18657;SDS011;9458;50.942;5.074;2022-12-07T10:07:45;6.45;;;5.05;;
18657;SDS011;9458;50.942;5.074;2022-12-07T10:10:13;10.18;;;5.47;;
18657;SDS011;9458;50.942;5.074;2022-12-07T10:12:52;8.00;;;5.00;;
18657;SDS011;9458;50.942;5.074;2022-12-07T10:15:23;6.15;;;5.05;;
18657;SDS011;9458;50.942;5.074;2022-12-07T10:18:14;11.25;;;5.35;;
18657;SDS011;9458;50.942;5.074;2022-12-07T10:20:46;8.60;;;4.93;;
18657;SDS011;9458;50.942;5.074;2022-12-07T10:23:15;10.23;;;5.20;;
18657;SDS011;9458;50.942;5.074;2022-12-07T10:25:45;6.57;;;4.65;;
18657;SDS011;9458;50.942;5.074;2022-12-07T10:28:14;6.28;;;4.53;;
18657;SDS011;9458;50.942;5.074;2022-12-07T10:30:48;8.48;;;4.22;;
18657;SDS011;9458;50.942;5.074;2022-12-07T10:33:30;9.10;;;4.97;;
18657;SDS011;9458;50.942;5.074;2022-12-07T10:36:01;11.27;;;6.15;;
18657;SDS011;9458;50.942;5.074;2022-12-07T10:38:44;9.38;;;4.70;;
18657;SDS011;9458;50.942;5.074;2022-12-07T10:41:14;8.57;;;4.53;;
18657;SDS011;9458;50.942;5.074;2022-12-07T10:43:48;8.57;;;4.78;;
18657;SDS011;9458;50.942;5.074;2022-12-07T10:46:34;7.05;;;4.20;;
18657;SDS011;9458;50.942;5.074;2022-12-07T10:52:35;6.88;;;4.55;;
18657;SDS011;9458;50.942;5.074;2022-12-07T10:55:25;6.68;;;4.15;;
18657;SDS011;9458;50.942;5.074;2022-12-07T10:58:05;8.77;;;4.47;;
18657;SDS011;9458;50.942;5.074;2022-12-07T11:00:48;7.93;;;4.55;;
18657;SDS011;9458;50.942;5.074;2022-12-07T11:03:25;7.97;;;4.30;;
18657;SDS011;9458;50.942;5.074;2022-12-07T11:06:05;8.82;;;4.30;;
18657;SDS011;9458;50.942;5.074;2022-12-07T11:08:44;6.53;;;4.30;;
18657;SDS011;9458;50.942;5.074;2022-12-07T11:11:23;8.77;;;4.38;;
18657;SDS011;9458;50.942;5.074;2022-12-07T11:14:00;8.32;;;3.88;;
18657;SDS011;9458;50.942;5.074;2022-12-07T11:16:42;4.78;;;3.92;;
18657;SDS011;9458;50.942;5.074;2022-12-07T11:19:23;5.93;;;3.80;;
18657;SDS011;9458;50.942;5.074;2022-12-07T11:22:09;7.93;;;3.70;;
18657;SDS011;9458;50.942;5.074;2022-12-07T11:24:44;4.75;;;3.47;;
18657;SDS011;9458;50.942;5.074;2022-12-07T11:27:20;8.38;;;4.70;;
18657;SDS011;9458;50.942;5.074;2022-12-07T11:30:12;7.40;;;4.13;;
18657;SDS011;9458;50.942;5.074;2022-12-07T11:32:50;5.18;;;3.53;;
18657;SDS011;9458;50.942;5.074;2022-12-07T11:35:30;10.18;;;4.22;;
18657;SDS011;9458;50.942;5.074;2022-12-07T11:38:11;11.20;;;4.00;;
18657;SDS011;9458;50.942;5.074;2022-12-07T11:40:43;7.47;;;4.35;;
18657;SDS011;9458;50.942;5.074;2022-12-07T11:43:17;7.63;;;3.90;;
18657;SDS011;9458;50.942;5.074;2022-12-07T11:45:52;7.28;;;4.20;;
18657;SDS011;9458;50.942;5.074;2022-12-07T11:48:25;5.15;;;4.40;;
18657;SDS011;9458;50.942;5.074;2022-12-07T11:51:00;6.82;;;3.60;;
18657;SDS011;9458;50.942;5.074;2022-12-07T11:53:32;8.27;;;3.95;;
18657;SDS011;9458;50.942;5.074;2022-12-07T11:56:07;7.70;;;3.97;;
18657;SDS011;9458;50.942;5.074;2022-12-07T11:58:48;6.03;;;4.07;;
18657;SDS011;9458;50.942;5.074;2022-12-07T12:01:26;7.82;;;3.92;;
18657;SDS011;9458;50.942;5.074;2022-12-07T12:04:06;5.68;;;4.22;;
18657;SDS011;9458;50.942;5.074;2022-12-07T12:06:49;9.57;;;4.30;;
18657;SDS011;9458;50.942;5.074;2022-12-07T12:09:19;4.05;;;3.60;;
18657;SDS011;9458;50.942;5.074;2022-12-07T12:12:04;5.25;;;3.47;;
18657;SDS011;9458;50.942;5.074;2022-12-07T12:14:57;6.10;;;3.72;;
18657;SDS011;9458;50.942;5.074;2022-12-07T12:17:37;8.38;;;3.38;;
18657;SDS011;9458;50.942;5.074;2022-12-07T12:20:39;4.88;;;3.40;;
18657;SDS011;9458;50.942;5.074;2022-12-07T12:23:11;6.78;;;3.20;;
18657;SDS011;9458;50.942;5.074;2022-12-07T12:25:49;10.52;;;3.85;;
18657;SDS011;9458;50.942;5.074;2022-12-07T12:29:19;7.32;;;3.30;;
18657;SDS011;9458;50.942;5.074;2022-12-07T12:32:03;5.22;;;3.17;;
18657;SDS011;9458;50.942;5.074;2022-12-07T12:34:38;4.63;;;3.30;;
18657;SDS011;9458;50.942;5.074;2022-12-07T12:46:37;4.65;;;2.67;;
18657;SDS011;9458;50.942;5.074;2022-12-07T13:10:21;2.65;;;1.48;;
18657;SDS011;9458;50.942;5.074;2022-12-07T13:13:21;7.53;;;2.28;;
18657;SDS011;9458;50.942;5.074;2022-12-07T13:18:57;4.35;;;3.20;;
18657;SDS011;9458;50.942;5.074;2022-12-07T13:24:09;4.20;;;3.13;;
18657;SDS011;9458;50.942;5.074;2022-12-07T13:26:41;4.90;;;3.50;;
18657;SDS011;9458;50.942;5.074;2022-12-07T13:29:13;7.97;;;4.18;;
18657;SDS011;9458;50.942;5.074;2022-12-07T13:31:42;7.68;;;4.00;;
18657;SDS011;9458;50.942;5.074;2022-12-07T13:34:28;8.23;;;4.35;;
18657;SDS011;9458;50.942;5.074;2022-12-07T13:37:08;8.32;;;4.63;;
18657;SDS011;9458;50.942;5.074;2022-12-07T13:39:44;16.02;;;5.00;;
18657;SDS011;9458;50.942;5.074;2022-12-07T13:42:18;7.60;;;4.90;;
18657;SDS011;9458;50.942;5.074;2022-12-07T13:44:54;8.70;;;4.63;;
18657;SDS011;9458;50.942;5.074;2022-12-07T13:47:25;7.65;;;3.63;;
18657;SDS011;9458;50.942;5.074;2022-12-07T13:49:59;6.80;;;3.22;;
18657;SDS011;9458;50.942;5.074;2022-12-07T13:52:27;3.72;;;3.08;;
18657;SDS011;9458;50.942;5.074;2022-12-07T13:55:00;4.35;;;3.20;;
18657;SDS011;9458;50.942;5.074;2022-12-07T13:57:39;5.68;;;3.50;;
18657;SDS011;9458;50.942;5.074;2022-12-07T14:00:22;7.43;;;4.10;;
18657;SDS011;9458;50.942;5.074;2022-12-07T14:02:58;6.35;;;4.20;;
18657;SDS011;9458;50.942;5.074;2022-12-07T14:05:32;7.70;;;4.40;;
18657;SDS011;9458;50.942;5.074;2022-12-07T14:08:03;6.57;;;4.70;;
18657;SDS011;9458;50.942;5.074;2022-12-07T14:10:33;8.00;;;4.20;;
18657;SDS011;9458;50.942;5.074;2022-12-07T14:13:26;7.90;;;3.53;;
18657;SDS011;9458;50.942;5.074;2022-12-07T14:15:59;4.95;;;3.22;;
18657;SDS011;9458;50.942;5.074;2022-12-07T14:18:28;6.30;;;3.30;;
18657;SDS011;9458;50.942;5.074;2022-12-07T14:21:03;6.65;;;3.08;;
18657;SDS011;9458;50.942;5.074;2022-12-07T14:23:32;6.32;;;3.08;;
18657;SDS011;9458;50.942;5.074;2022-12-07T14:26:08;6.18;;;3.83;;
18657;SDS011;9458;50.942;5.074;2022-12-07T14:28:42;7.22;;;3.63;;
18657;SDS011;9458;50.942;5.074;2022-12-07T14:31:13;8.00;;;3.80;;
18657;SDS011;9458;50.942;5.074;2022-12-07T14:33:43;8.20;;;4.00;;
18657;SDS011;9458;50.942;5.074;2022-12-07T14:36:11;6.05;;;4.20;;
18657;SDS011;9458;50.942;5.074;2022-12-07T14:38:41;8.00;;;4.40;;
18657;SDS011;9458;50.942;5.074;2022-12-07T14:41:19;10.27;;;3.70;;
18657;SDS011;9458;50.942;5.074;2022-12-07T14:44:14;7.35;;;4.13;;
18657;SDS011;9458;50.942;5.074;2022-12-07T14:46:46;6.28;;;3.40;;
18657;SDS011;9458;50.942;5.074;2022-12-07T14:49:19;4.57;;;3.72;;
18657;SDS011;9458;50.942;5.074;2022-12-07T14:51:46;5.68;;;4.05;;
18657;SDS011;9458;50.942;5.074;2022-12-07T14:54:16;5.88;;;4.28;;
18657;SDS011;9458;50.942;5.074;2022-12-07T14:56:48;6.32;;;4.10;;
18657;SDS011;9458;50.942;5.074;2022-12-07T14:59:21;7.68;;;4.20;;
18657;SDS011;9458;50.942;5.074;2022-12-07T15:01:50;10.20;;;4.85;;
18657;SDS011;9458;50.942;5.074;2022-12-07T15:04:21;5.07;;;4.35;;
18657;SDS011;9458;50.942;5.074;2022-12-07T15:07:03;9.65;;;4.75;;
18657;SDS011;9458;50.942;5.074;2022-12-07T15:09:48;5.20;;;3.00;;
18657;SDS011;9458;50.942;5.074;2022-12-07T15:12:22;5.13;;;3.72;;
18657;SDS011;9458;50.942;5.074;2022-12-07T15:15:03;3.80;;;2.78;;
18657;SDS011;9458;50.942;5.074;2022-12-07T15:17:33;3.28;;;2.28;;
18657;SDS011;9458;50.942;5.074;2022-12-07T15:20:03;3.22;;;2.00;;
18657;SDS011;9458;50.942;5.074;2022-12-07T15:22:32;5.82;;;2.85;;
18657;SDS011;9458;50.942;5.074;2022-12-07T15:25:31;3.70;;;2.55;;
18657;SDS011;9458;50.942;5.074;2022-12-07T15:28:00;3.08;;;2.50;;
18657;SDS011;9458;50.942;5.074;2022-12-07T15:30:27;5.32;;;2.83;;
18657;SDS011;9458;50.942;5.074;2022-12-07T15:33:06;3.70;;;2.58;;
18657;SDS011;9458;50.942;5.074;2022-12-07T15:35:38;3.38;;;2.70;;
18657;SDS011;9458;50.942;5.074;2022-12-07T15:38:10;3.10;;;2.58;;
18657;SDS011;9458;50.942;5.074;2022-12-07T15:40:39;3.28;;;2.67;;
18657;SDS011;9458;50.942;5.074;2022-12-07T15:43:08;5.18;;;3.88;;
18657;SDS011;9458;50.942;5.074;2022-12-07T15:45:58;3.78;;;3.08;;
18657;SDS011;9458;50.942;5.074;2022-12-07T15:48:26;6.72;;;3.20;;
18657;SDS011;9458;50.942;5.074;2022-12-07T15:51:01;5.22;;;3.20;;
18657;SDS011;9458;50.942;5.074;2022-12-07T15:53:29;4.15;;;3.00;;
18657;SDS011;9458;50.942;5.074;2022-12-07T15:55:58;7.28;;;3.15;;
18657;SDS011;9458;50.942;5.074;2022-12-07T15:58:25;4.20;;;2.90;;
18657;SDS011;9458;50.942;5.074;2022-12-07T16:00:53;4.85;;;2.83;;